Time;durP1;ratioP1;P1;durP2;ratioP2;P2;SDS_P1;SDS_P2;PMS_P1;PMS_P2;Temp;Humidity;BMP_temperature;BMP_pressure;BME280_temperature;BME280_humidity;BME280_pressure;Samples;Min_cycle;Max_cycle;Signal;HPM_P1;HPM_P2
2023/11/22 00:00:31;;;;;;;0.10;0.10;;;23.20;51.00;;;;;;5032028;28;20619;-56
2023/11/22 00:03:01;;;;;;;0.00;0.00;;;23.30;51.10;;;;;;5032202;28;20237;-51
2023/11/22 00:05:32;;;;;;;0.10;0.10;;;23.30;51.00;;;;;;5031467;28;20220;-56
2023/11/22 00:08:03;;;;;;;0.00;0.00;;;23.30;51.00;;;;;;5031683;28;20224;-55
2023/11/22 00:10:34;;;;;;;0.00;0.00;;;23.40;51.00;;;;;;5033170;28;20238;-57
2023/11/22 00:13:07;;;;;;;0.00;0.00;;;23.40;51.00;;;;;;5051182;28;20257;-57
2023/11/22 00:15:37;;;;;;;0.00;0.00;;;23.40;51.00;;;;;;5047922;28;20689;-55
2023/11/22 00:18:08;;;;;;;0.00;0.00;;;23.40;50.90;;;;;;5031276;28;20704;-55
2023/11/22 00:20:39;;;;;;;0.00;0.00;;;23.50;50.90;;;;;;5031272;28;20641;-54
2023/11/22 00:23:10;;;;;;;0.00;0.00;;;23.50;50.90;;;;;;5031066;28;20219;-57
2023/11/22 00:25:39;;;;;;;0.00;0.00;;;23.50;50.80;;;;;;5031484;28;20219;-55
2023/11/22 00:28:11;;;;;;;0.00;0.00;;;23.50;50.80;;;;;;5031676;28;20250;-55
2023/11/22 00:30:42;;;;;;;0.00;0.00;;;23.50;50.80;;;;;;5030590;28;20204;-54
2023/11/22 00:33:14;;;;;;;0.00;0.00;;;23.60;50.70;;;;;;5031874;28;20563;-56
2023/11/22 00:35:44;;;;;;;0.00;0.00;;;23.60;50.70;;;;;;5031009;28;20644;-51
2023/11/22 00:38:15;;;;;;;0.00;0.00;;;23.70;50.70;;;;;;5030029;28;20556;-55
2023/11/22 00:40:46;;;;;;;0.00;0.00;;;23.70;50.70;;;;;;5030130;28;20663;-53
2023/11/22 00:43:18;;;;;;;0.00;0.00;;;23.70;50.70;;;;;;5020533;28;20203;-54
2023/11/22 00:45:49;;;;;;;0.00;0.00;;;23.70;50.70;;;;;;5025962;28;20234;-55
2023/11/22 00:48:20;;;;;;;0.00;0.00;;;23.70;50.60;;;;;;5022798;28;20213;-56
2023/11/22 00:50:50;;;;;;;0.00;0.00;;;23.70;50.60;;;;;;5020696;28;20562;-54
2023/11/22 00:53:21;;;;;;;0.00;0.00;;;23.80;50.70;;;;;;5024058;28;20196;-54
2023/11/22 00:55:52;;;;;;;0.00;0.00;;;23.80;50.70;;;;;;5022047;28;20196;-57
2023/11/22 00:58:25;;;;;;;0.00;0.00;;;23.80;50.70;;;;;;5027572;28;20212;-54
2023/11/22 01:00:59;;;;;;;0.00;0.00;;;23.80;50.70;;;;;;5030387;28;20583;-54
2023/11/22 01:03:30;;;;;;;0.00;0.00;;;23.80;50.70;;;;;;5029662;28;20285;-50
2023/11/22 01:06:00;;;;;;;0.00;0.00;;;23.80;50.60;;;;;;5034869;28;20227;-56
2023/11/22 01:08:31;;;;;;;0.00;0.00;;;23.90;50.60;;;;;;5037630;28;20227;-45
2023/11/22 01:11:03;;;;;;;0.10;0.10;;;23.90;50.60;;;;;;5041831;28;20199;-46
2023/11/22 01:13:40;;;;;;;0.00;0.00;;;23.90;50.60;;;;;;5057372;28;20277;-47
2023/11/22 01:16:12;;;;;;;0.05;0.05;;;24.00;50.50;;;;;;5056557;28;20194;-48
2023/11/22 01:18:43;;;;;;;0.00;0.00;;;24.00;50.50;;;;;;5037830;28;20227;-51
2023/11/22 01:21:14;;;;;;;0.00;0.00;;;24.00;50.40;;;;;;5037658;28;20548;-44
2023/11/22 01:23:45;;;;;;;0.00;0.00;;;24.00;50.30;;;;;;5037591;28;20636;-44
2023/11/22 01:26:16;;;;;;;0.00;0.00;;;24.10;50.40;;;;;;5036874;28;20224;-47
2023/11/22 01:28:49;;;;;;;0.00;0.00;;;24.10;50.40;;;;;;5036654;28;20567;-43
2023/11/22 01:31:20;;;;;;;0.00;0.00;;;24.10;50.40;;;;;;5036457;28;20199;-45
2023/11/22 01:33:51;;;;;;;0.00;0.00;;;24.10;50.40;;;;;;5037539;28;20701;-46
2023/11/22 01:36:22;;;;;;;0.05;0.05;;;24.20;50.40;;;;;;5036674;28;20291;-48
2023/11/22 01:38:54;;;;;;;0.00;0.00;;;24.20;50.40;;;;;;5036918;28;20589;-54
2023/11/22 01:41:25;;;;;;;0.00;0.00;;;24.20;50.30;;;;;;5045239;28;20203;-55
2023/11/22 01:43:57;;;;;;;0.00;0.00;;;24.20;50.30;;;;;;5057601;28;20195;-55
2023/11/22 01:46:28;;;;;;;0.05;0.05;;;24.20;50.30;;;;;;5057179;28;20690;-46
2023/11/22 01:48:59;;;;;;;0.10;0.10;;;24.30;50.30;;;;;;5057650;28;20591;-51
2023/11/22 01:51:31;;;;;;;0.00;0.00;;;24.30;50.40;;;;;;5057653;28;20770;-54
2023/11/22 01:54:02;;;;;;;0.00;0.00;;;24.30;50.30;;;;;;5057435;28;20198;-51
2023/11/22 01:56:33;;;;;;;0.00;0.00;;;24.30;50.20;;;;;;5057440;28;20203;-52
2023/11/22 01:59:06;;;;;;;0.00;0.00;;;24.30;50.20;;;;;;5041732;28;20222;-56
2023/11/22 02:01:37;;;;;;;0.00;0.00;;;24.40;50.30;;;;;;5017688;28;20653;-50
2023/11/22 02:04:22;;;;;;;0.00;0.00;;;24.40;50.20;;;;;;5026254;28;20218;-54
2023/11/22 02:06:53;;;;;;;0.00;0.00;;;24.40;50.20;;;;;;5035755;28;20255;-54
2023/11/22 02:09:24;;;;;;;0.03;0.03;;;24.50;50.20;;;;;;5036346;28;20608;-50
2023/11/22 02:11:55;;;;;;;0.00;0.00;;;24.50;50.20;;;;;;5037705;28;20206;-57
2023/11/22 02:14:28;;;;;;;0.00;0.00;;;24.50;50.20;;;;;;5036577;28;20195;-55
2023/11/22 02:16:58;;;;;;;0.00;0.00;;;24.50;50.10;;;;;;5034136;28;20207;-56
2023/11/22 02:19:30;;;;;;;0.00;0.00;;;24.50;50.20;;;;;;5033018;28;20216;-49
2023/11/22 02:22:02;;;;;;;0.00;0.00;;;24.60;50.20;;;;;;5033685;28;20200;-48
2023/11/22 02:24:34;;;;;;;0.00;0.00;;;24.60;50.10;;;;;;5033016;28;20258;-48
2023/11/22 02:27:06;;;;;;;0.00;0.00;;;24.60;50.10;;;;;;5032945;28;20266;-48
2023/11/22 02:29:36;;;;;;;0.00;0.00;;;24.70;50.10;;;;;;5033826;28;20216;-46
2023/11/22 02:32:08;;;;;;;0.00;0.00;;;24.70;50.10;;;;;;5033812;28;20219;-50
2023/11/22 02:34:39;;;;;;;0.00;0.00;;;24.70;50.00;;;;;;5033360;28;20199;-49
2023/11/22 02:37:09;;;;;;;0.00;0.00;;;24.70;50.00;;;;;;5033191;28;20203;-48
2023/11/22 02:39:54;;;;;;;0.00;0.00;;;24.70;50.00;;;;;;5033084;28;20201;-55
2023/11/22 02:42:25;;;;;;;0.00;0.00;;;24.80;50.00;;;;;;5049871;28;20203;-56
2023/11/22 02:44:56;;;;;;;0.00;0.00;;;24.80;49.80;;;;;;5053239;28;20656;-55
2023/11/22 02:47:27;;;;;;;0.00;0.00;;;24.80;49.80;;;;;;5052568;28;20286;-57
2023/11/22 02:49:57;;;;;;;0.00;0.00;;;24.90;49.80;;;;;;5052507;28;20203;-56
2023/11/22 02:52:28;;;;;;;0.00;0.00;;;24.90;49.70;;;;;;5042935;28;20203;-56
2023/11/22 02:55:01;;;;;;;0.00;0.00;;;24.90;49.70;;;;;;5033769;28;20197;-54
2023/11/22 02:57:31;;;;;;;0.00;0.00;;;24.90;49.70;;;;;;5032504;28;20200;-56
2023/11/22 03:00:03;;;;;;;0.00;0.00;;;25.00;49.60;;;;;;5033381;28;20207;-55
2023/11/22 03:02:34;;;;;;;0.00;0.00;;;25.00;49.60;;;;;;5032079;28;20196;-58
2023/11/22 03:05:05;;;;;;;0.10;0.10;;;25.10;49.60;;;;;;5032604;28;20208;-56
2023/11/22 03:07:36;;;;;;;0.03;0.03;;;25.10;49.60;;;;;;5021816;28;20216;-56
2023/11/22 03:10:10;;;;;;;0.00;0.00;;;25.10;49.50;;;;;;5033102;28;20196;-55
2023/11/22 03:12:41;;;;;;;0.00;0.00;;;25.10;49.60;;;;;;5051533;28;20196;-55
2023/11/22 03:15:12;;;;;;;0.00;0.00;;;25.10;49.50;;;;;;5034341;28;20192;-56
2023/11/22 03:17:44;;;;;;;0.00;0.00;;;25.20;49.50;;;;;;5029715;28;20598;-56
2023/11/22 03:20:15;;;;;;;0.00;0.00;;;25.20;49.50;;;;;;5045071;28;20283;-56
2023/11/22 03:22:50;;;;;;;0.00;0.00;;;25.20;49.50;;;;;;5052550;28;20195;-55
2023/11/22 03:25:23;;;;;;;0.00;0.00;;;25.30;49.60;;;;;;5034822;28;20215;-42
2023/11/22 03:27:54;;;;;;;0.00;0.00;;;25.30;49.50;;;;;;5031881;28;20675;-56
2023/11/22 03:30:24;;;;;;;0.00;0.00;;;25.30;49.50;;;;;;5032481;28;20232;-55
2023/11/22 03:32:55;;;;;;;0.00;0.00;;;25.30;50.00;;;;;;5032369;28;20253;-54
2023/11/22 03:35:26;;;;;;;0.00;0.00;;;25.40;49.50;;;;;;5032349;28;20199;-56
2023/11/22 03:37:56;;;;;;;0.00;0.00;;;25.40;49.40;;;;;;5031891;28;20223;-55
2023/11/22 03:40:29;;;;;;;0.00;0.00;;;25.40;49.30;;;;;;5047390;28;20655;-49
2023/11/22 03:42:59;;;;;;;0.00;0.00;;;25.50;49.30;;;;;;5051464;28;20203;-50
2023/11/22 03:45:30;;;;;;;0.00;0.00;;;25.50;49.30;;;;;;5038882;28;20223;-48
2023/11/22 03:48:00;;;;;;;0.00;0.00;;;25.50;49.20;;;;;;5031928;28;20238;-56
2023/11/22 03:50:31;;;;;;;0.00;0.00;;;25.60;49.20;;;;;;5031984;28;20655;-57
2023/11/22 03:53:02;;;;;;;0.00;0.00;;;25.60;49.20;;;;;;5031078;28;20208;-49
2023/11/22 03:55:34;;;;;;;0.00;0.00;;;25.60;49.10;;;;;;5031838;28;20207;-56
2023/11/22 03:58:05;;;;;;;0.00;0.00;;;25.70;49.20;;;;;;5030986;28;20234;-53
2023/11/22 04:00:36;;;;;;;0.00;0.00;;;25.70;49.10;;;;;;5031989;28;20232;-55
2023/11/22 04:03:07;;;;;;;0.00;0.00;;;25.70;49.00;;;;;;5030825;28;20212;-55
2023/11/22 04:05:37;;;;;;;0.03;0.03;;;25.80;49.10;;;;;;5030738;28;20311;-52
2023/11/22 04:08:08;;;;;;;0.00;0.00;;;25.80;49.00;;;;;;5031183;28;20625;-51
2023/11/22 04:10:41;;;;;;;0.00;0.00;;;25.90;49.00;;;;;;5033398;28;20203;-44
2023/11/22 04:13:11;;;;;;;0.00;0.00;;;25.90;49.00;;;;;;5031457;28;20200;-46
2023/11/22 04:15:42;;;;;;;0.00;0.00;;;25.90;49.00;;;;;;5030795;28;20204;-55
2023/11/22 04:18:13;;;;;;;0.00;0.00;;;25.90;48.90;;;;;;5031026;28;20248;-54
2023/11/22 04:20:44;;;;;;;0.00;0.00;;;25.90;48.90;;;;;;5031252;28;20362;-46
2023/11/22 04:23:15;;;;;;;0.00;0.00;;;26.00;48.90;;;;;;5030372;28;20294;-42
2023/11/22 04:25:49;;;;;;;0.00;0.00;;;26.00;48.90;;;;;;5031067;28;20271;-56
2023/11/22 04:28:19;;;;;;;0.00;0.00;;;26.00;48.90;;;;;;5030556;28;20226;-54
2023/11/22 04:30:50;;;;;;;0.00;0.00;;;26.00;48.80;;;;;;5030560;28;20668;-56
2023/11/22 04:33:21;;;;;;;0.00;0.00;;;26.00;48.80;;;;;;5032032;28;20207;-52
2023/11/22 04:35:51;;;;;;;0.00;0.00;;;26.10;48.80;;;;;;5031369;28;20200;-55
2023/11/22 04:38:22;;;;;;;0.00;0.00;;;26.10;48.80;;;;;;5031806;28;20231;-55
2023/11/22 04:40:55;;;;;;;0.00;0.00;;;26.10;48.70;;;;;;5034538;28;20206;-56
2023/11/22 04:43:26;;;;;;;0.00;0.00;;;26.20;48.70;;;;;;5050738;28;20195;-56
2023/11/22 04:45:56;;;;;;;0.00;0.00;;;26.20;48.60;;;;;;5051433;28;20623;-57
2023/11/22 04:48:27;;;;;;;0.00;0.00;;;26.20;48.70;;;;;;5050433;28;20250;-55
2023/11/22 04:50:58;;;;;;;0.00;0.00;;;26.20;48.60;;;;;;5050703;28;20202;-52
2023/11/22 04:53:28;;;;;;;0.00;0.00;;;26.20;48.60;;;;;;5031675;28;20207;-56
2023/11/22 04:56:05;;;;;;;0.00;0.00;;;26.20;48.60;;;;;;5031626;28;20192;-57
2023/11/22 04:58:35;;;;;;;0.00;0.00;;;26.30;48.70;;;;;;5031331;28;20252;-55
2023/11/22 05:01:06;;;;;;;0.00;0.00;;;26.30;48.70;;;;;;5031341;28;20200;-56
2023/11/22 05:03:37;;;;;;;0.00;0.00;;;26.30;48.70;;;;;;5030903;28;20398;-53
2023/11/22 05:06:08;;;;;;;0.00;0.00;;;26.30;48.70;;;;;;5030364;28;20216;-54
2023/11/22 05:08:39;;;;;;;0.00;0.00;;;26.30;48.70;;;;;;5030993;28;20250;-55
2023/11/22 05:11:11;;;;;;;0.00;0.00;;;26.30;48.60;;;;;;5035797;28;20651;-56
2023/11/22 05:13:42;;;;;;;0.00;0.00;;;26.40;48.70;;;;;;5035773;28;20223;-54
2023/11/22 05:16:13;;;;;;;0.00;0.00;;;26.30;48.60;;;;;;5030392;28;20200;-53
2023/11/22 05:18:44;;;;;;;0.00;0.00;;;26.40;48.60;;;;;;5030345;28;20227;-53
2023/11/22 05:21:14;;;;;;;0.00;0.00;;;26.40;48.60;;;;;;5030596;28;20609;-56
2023/11/22 05:23:45;;;;;;;0.00;0.00;;;26.40;48.50;;;;;;5030499;28;20656;-57
2023/11/22 05:26:17;;;;;;;0.00;0.00;;;26.40;48.60;;;;;;5030403;28;20224;-56
2023/11/22 05:28:48;;;;;;;0.00;0.00;;;26.40;48.50;;;;;;5030675;28;20220;-52
2023/11/22 05:31:20;;;;;;;0.00;0.00;;;26.40;48.50;;;;;;5030453;28;20627;-54
2023/11/22 05:33:50;;;;;;;0.00;0.00;;;26.50;48.60;;;;;;5031118;22;20236;-53
2023/11/22 05:36:21;;;;;;;0.00;0.00;;;26.50;48.50;;;;;;5070118;28;20592;-55
2023/11/22 05:38:51;;;;;;;0.00;0.00;;;26.50;48.50;;;;;;5069228;28;20214;-55
2023/11/22 05:41:25;;;;;;;0.00;0.00;;;26.50;48.50;;;;;;5070708;28;20619;-53
2023/11/22 05:43:56;;;;;;;0.00;0.00;;;26.50;48.40;;;;;;5069729;28;20225;-54
2023/11/22 05:46:27;;;;;;;0.00;0.00;;;26.50;48.40;;;;;;5069997;28;20234;-54
2023/11/22 05:48:57;;;;;;;0.00;0.00;;;26.50;48.40;;;;;;5070599;28;20214;-55
2023/11/22 05:51:28;;;;;;;0.00;0.00;;;26.60;48.40;;;;;;5069813;28;20202;-55
2023/11/22 05:53:59;;;;;;;0.00;0.00;;;26.50;48.40;;;;;;5074082;28;20194;-55
2023/11/22 05:56:31;;;;;;;0.00;0.00;;;26.60;48.40;;;;;;5074253;28;20199;-55
2023/11/22 05:59:02;;;;;;;0.00;0.00;;;26.60;48.40;;;;;;5072867;28;20628;-55
2023/11/22 06:01:32;;;;;;;0.00;0.00;;;26.60;48.40;;;;;;5073057;28;20230;-55
2023/11/22 06:04:03;;;;;;;0.00;0.00;;;26.60;48.40;;;;;;5059050;28;20466;-55
2023/11/22 06:06:34;;;;;;;0.00;0.00;;;26.60;48.40;;;;;;5053232;28;20637;-54
2023/11/22 06:09:05;;;;;;;0.00;0.00;;;26.60;48.40;;;;;;5053610;28;20223;-54
2023/11/22 06:11:37;;;;;;;0.00;0.00;;;26.60;48.40;;;;;;5068263;28;20231;-52
2023/11/22 06:14:08;;;;;;;0.00;0.00;;;26.60;48.40;;;;;;5055166;28;20609;-54
2023/11/22 06:16:39;;;;;;;0.00;0.00;;;26.60;48.40;;;;;;5053852;28;20195;-54
2023/11/22 06:19:09;;;;;;;0.00;0.00;;;26.60;48.40;;;;;;5055519;28;20234;-52
2023/11/22 06:21:40;;;;;;;0.00;0.00;;;26.60;48.30;;;;;;5053257;28;20235;-55
2023/11/22 06:24:15;;;;;;;0.03;0.03;;;26.60;48.30;;;;;;5056053;28;20195;-54
2023/11/22 06:26:48;;;;;;;0.00;0.00;;;26.60;48.30;;;;;;5073264;28;20222;-55
2023/11/22 06:29:18;;;;;;;0.00;0.00;;;26.60;48.30;;;;;;5072702;28;20222;-56
2023/11/22 06:31:49;;;;;;;0.00;0.00;;;26.60;48.20;;;;;;5073630;28;20669;-53
2023/11/22 06:34:20;;;;;;;0.00;0.00;;;26.60;48.10;;;;;;5091015;22;20229;-48
2023/11/22 06:36:50;;;;;;;0.00;0.00;;;26.60;48.00;;;;;;5093573;28;20199;-50
2023/11/22 06:39:22;;;;;;;0.00;0.00;;;26.60;48.00;;;;;;5087864;28;20207;-51
2023/11/22 06:41:54;;;;;;;0.00;0.00;;;26.60;47.90;;;;;;5084610;28;20198;-46
2023/11/22 06:44:26;;;;;;;0.00;0.00;;;26.50;47.80;;;;;;5093422;28;20652;-55
2023/11/22 06:46:57;;;;;;;0.00;0.00;;;26.50;47.80;;;;;;5092978;28;20244;-53
2023/11/22 06:49:27;;;;;;;0.00;0.00;;;26.60;47.90;;;;;;5093748;28;20210;-51
2023/11/22 06:51:58;;;;;;;0.00;0.00;;;26.50;47.80;;;;;;5093708;28;20194;-56
2023/11/22 06:54:29;;;;;;;0.00;0.00;;;26.50;47.80;;;;;;5093635;28;20190;-49
2023/11/22 06:57:01;;;;;;;0.00;0.00;;;26.50;47.80;;;;;;5093440;28;20202;-56
2023/11/22 06:59:32;;;;;;;0.00;0.00;;;26.50;47.90;;;;;;5092357;28;20206;-54
2023/11/22 07:02:03;;;;;;;0.00;0.00;;;26.50;47.90;;;;;;5092469;28;20217;-54
2023/11/22 07:04:34;;;;;;;0.00;0.00;;;26.50;47.90;;;;;;5083928;28;20198;-57
2023/11/22 07:07:05;;;;;;;0.00;0.00;;;26.50;47.90;;;;;;5073153;28;20226;-54
2023/11/22 07:09:36;;;;;;;0.00;0.00;;;26.50;47.80;;;;;;5072948;28;20301;-57
2023/11/22 07:12:10;;;;;;;0.00;0.00;;;26.50;47.80;;;;;;5085325;28;20289;-49
2023/11/22 07:14:42;;;;;;;0.00;0.00;;;26.50;47.70;;;;;;5073225;28;20191;-55
2023/11/22 07:17:13;;;;;;;0.00;0.00;;;26.40;47.60;;;;;;5072264;28;20681;-55
2023/11/22 07:19:46;;;;;;;0.00;0.00;;;26.40;47.60;;;;;;5073065;28;20208;-56
2023/11/22 07:22:22;;;;;;;0.00;0.00;;;26.40;47.60;;;;;;5072749;28;20226;-55
2023/11/22 07:24:54;;;;;;;0.00;0.00;;;26.40;47.50;;;;;;5072958;28;20658;-57
2023/11/22 07:27:26;;;;;;;0.00;0.00;;;26.40;47.50;;;;;;5072365;28;20309;-56
2023/11/22 07:29:57;;;;;;;0.00;0.00;;;26.40;47.50;;;;;;5072311;28;20199;-46
2023/11/22 07:32:28;;;;;;;0.00;0.00;;;26.30;47.50;;;;;;5071881;28;20202;-53
2023/11/22 07:35:03;;;;;;;0.00;0.00;;;26.30;47.40;;;;;;5073163;28;20226;-56
2023/11/22 07:37:34;;;;;;;0.00;0.00;;;26.30;47.50;;;;;;5072250;28;20234;-57
2023/11/22 07:40:05;;;;;;;0.00;0.00;;;26.30;47.50;;;;;;5072398;28;20582;-55
2023/11/22 07:42:40;;;;;;;0.00;0.00;;;26.20;47.40;;;;;;5090994;28;20234;-52
2023/11/22 07:45:11;;;;;;;0.00;0.00;;;26.20;47.50;;;;;;5093292;28;20198;-50
2023/11/22 07:47:43;;;;;;;0.00;0.00;;;26.20;47.50;;;;;;5092121;28;20226;-53
2023/11/22 07:50:14;;;;;;;0.00;0.00;;;26.20;47.50;;;;;;5092622;28;20201;-49
2023/11/22 07:52:44;;;;;;;0.00;0.00;;;26.20;47.60;;;;;;5092852;28;20562;-52
2023/11/22 07:55:17;;;;;;;0.00;0.00;;;26.20;47.50;;;;;;5092850;28;20197;-56
2023/11/22 07:57:52;;;;;;;0.00;0.00;;;26.20;47.50;;;;;;5082956;28;20298;-53
2023/11/22 08:00:24;;;;;;;0.00;0.00;;;26.10;47.40;;;;;;5078109;28;20197;-55
2023/11/22 08:02:55;;;;;;;0.00;0.00;;;26.10;47.40;;;;;;5080092;28;20236;-51
2023/11/22 08:05:27;;;;;;;0.00;0.00;;;26.10;47.50;;;;;;5080634;28;20214;-54
2023/11/22 08:07:58;;;;;;;0.00;0.00;;;26.00;47.40;;;;;;5080618;28;20246;-51
2023/11/22 08:10:29;;;;;;;0.00;0.00;;;26.00;47.50;;;;;;5075916;28;20564;-58
2023/11/22 08:13:02;;;;;;;0.00;0.00;;;26.00;47.50;;;;;;5091877;28;20209;-53
2023/11/22 08:15:33;;;;;;;0.00;0.00;;;26.00;47.50;;;;;;5089349;28;20190;-52
2023/11/22 08:18:04;;;;;;;0.00;0.00;;;25.90;47.40;;;;;;5071913;28;20218;-54
2023/11/22 08:20:34;;;;;;;0.00;0.00;;;25.90;47.40;;;;;;5074515;28;20198;-50
2023/11/22 08:23:06;;;;;;;0.10;0.10;;;25.90;47.40;;;;;;5072174;28;20195;-56
2023/11/22 08:25:38;;;;;;;0.00;0.00;;;25.90;47.50;;;;;;5075031;28;20618;-50
2023/11/22 08:28:10;;;;;;;0.00;0.00;;;25.90;47.50;;;;;;5090999;28;20352;-52
2023/11/22 08:30:41;;;;;;;0.00;0.00;;;25.90;47.50;;;;;;5072577;28;20198;-45
2023/11/22 08:33:11;;;;;;;0.00;0.00;;;25.80;47.50;;;;;;5073487;28;20198;-53
2023/11/22 08:35:42;;;;;;;0.00;0.00;;;25.80;47.50;;;;;;5091556;28;20657;-55
2023/11/22 08:38:13;;;;;;;0.00;0.00;;;25.80;47.50;;;;;;5089944;28;20292;-46
2023/11/22 08:40:44;;;;;;;0.00;0.00;;;25.70;47.50;;;;;;5090772;28;20338;-57
2023/11/22 08:43:16;;;;;;;0.00;0.00;;;25.70;47.60;;;;;;5089915;28;20563;-44
2023/11/22 08:45:47;;;;;;;0.00;0.00;;;25.70;47.60;;;;;;5085923;28;20190;-54
2023/11/22 08:48:17;;;;;;;0.00;0.00;;;25.70;47.60;;;;;;5090755;28;20229;-55
2023/11/22 08:50:49;;;;;;;0.00;0.00;;;25.70;47.60;;;;;;5091078;28;20276;-55
2023/11/22 08:53:19;;;;;;;0.00;0.00;;;25.60;47.50;;;;;;5091692;28;20229;-56
2023/11/22 08:55:50;;;;;;;0.00;0.00;;;25.60;47.50;;;;;;5090263;28;20197;-42
2023/11/22 08:58:23;;;;;;;0.00;0.00;;;25.60;47.50;;;;;;5091676;28;20224;-55
2023/11/22 09:00:53;;;;;;;0.00;0.00;;;25.60;47.50;;;;;;5078569;28;20569;-53
2023/11/22 09:03:24;;;;;;;0.00;0.00;;;25.60;47.50;;;;;;5070734;28;20234;-55
2023/11/22 09:05:55;;;;;;;0.00;0.00;;;25.50;47.50;;;;;;5071224;28;20195;-54
2023/11/22 09:08:26;;;;;;;0.00;0.00;;;25.50;47.50;;;;;;5070955;28;20226;-55
2023/11/22 09:10:56;;;;;;;0.00;0.00;;;25.50;47.50;;;;;;5072719;28;20268;-54
2023/11/22 09:13:29;;;;;;;0.00;0.00;;;25.50;47.50;;;;;;5089471;28;20198;-57
2023/11/22 09:16:00;;;;;;;0.10;0.10;;;25.40;47.50;;;;;;5073657;28;20191;-46
2023/11/22 09:18:31;;;;;;;0.00;0.00;;;25.40;47.50;;;;;;5069569;28;20576;-56
2023/11/22 09:21:01;;;;;;;0.00;0.00;;;25.40;47.50;;;;;;5070386;28;20195;-52
2023/11/22 09:23:32;;;;;;;0.00;0.00;;;25.40;47.60;;;;;;5070025;28;20197;-43
2023/11/22 09:26:02;;;;;;;0.00;0.00;;;25.30;47.50;;;;;;5082668;28;20198;-56
2023/11/22 09:28:36;;;;;;;0.00;0.00;;;25.30;47.60;;;;;;5094370;28;20985;-52
2023/11/22 09:31:07;;;;;;;0.05;0.05;;;25.30;47.60;;;;;;5094154;28;20546;-53
2023/11/22 09:33:38;;;;;;;0.00;0.00;;;25.30;47.60;;;;;;5095218;28;20194;-43
2023/11/22 09:36:09;;;;;;;0.00;0.00;;;25.30;47.60;;;;;;5095245;28;20204;-54
2023/11/22 09:38:40;;;;;;;0.00;0.00;;;25.30;47.60;;;;;;5094835;28;20214;-54
2023/11/22 09:41:10;;;;;;;0.00;0.00;;;25.20;47.60;;;;;;5094531;28;20213;-55
2023/11/22 09:43:44;;;;;;;0.00;0.00;;;25.20;47.50;;;;;;5095175;28;20648;-54
2023/11/22 09:46:19;;;;;;;0.00;0.00;;;25.20;47.60;;;;;;5094517;28;20201;-49
2023/11/22 09:48:52;;;;;;;0.00;0.00;;;25.10;47.50;;;;;;5095170;28;20221;-55
2023/11/22 09:51:26;;;;;;;0.00;0.00;;;25.10;47.50;;;;;;5093766;28;20197;-56
2023/11/22 09:54:00;;;;;;;0.00;0.00;;;25.10;47.60;;;;;;5094305;28;20633;-56
2023/11/22 09:56:32;;;;;;;0.00;0.00;;;25.10;47.50;;;;;;5092896;28;20208;-52
2023/11/22 09:59:08;;;;;;;0.00;0.00;;;25.10;47.60;;;;;;5094476;28;20297;-56
2023/11/22 10:01:40;;;;;;;0.00;0.00;;;25.00;47.50;;;;;;5094410;28;20230;-42
2023/11/22 10:04:11;;;;;;;0.00;0.00;;;25.00;47.50;;;;;;5093692;28;20194;-49
2023/11/22 10:06:46;;;;;;;0.00;0.00;;;25.00;47.60;;;;;;5094673;28;20198;-44
2023/11/22 10:09:17;;;;;;;0.00;0.00;;;25.00;47.60;;;;;;5093252;28;20240;-45
2023/11/22 10:11:50;;;;;;;0.00;0.00;;;24.90;47.60;;;;;;5094239;28;20596;-43
2023/11/22 10:14:28;;;;;;;0.00;0.00;;;24.90;47.70;;;;;;5089283;28;20198;-46
2023/11/22 10:17:05;;;;;;;0.00;0.00;;;24.90;47.70;;;;;;5087313;28;20205;-44
2023/11/22 10:19:37;;;;;;;0.05;0.05;;;24.90;47.70;;;;;;5093330;28;20210;-43
2023/11/22 10:22:08;;;;;;;0.00;0.00;;;24.90;47.70;;;;;;5093710;28;20673;-43
2023/11/22 10:24:40;;;;;;;0.00;0.00;;;24.80;47.70;;;;;;5092313;28;20194;-46
2023/11/22 10:27:13;;;;;;;0.00;0.00;;;24.90;47.80;;;;;;5092799;28;20198;-42
2023/11/22 10:29:48;;;;;;;0.00;0.00;;;24.80;47.70;;;;;;5092604;28;20273;-43
2023/11/22 10:32:19;;;;;;;0.00;0.00;;;24.80;47.70;;;;;;5092629;28;20645;-50
2023/11/22 10:34:50;;;;;;;0.00;0.00;;;24.80;47.70;;;;;;5093571;28;20612;-43
2023/11/22 10:37:24;;;;;;;0.00;0.00;;;24.70;47.70;;;;;;5092847;28;20616;-42
2023/11/22 10:39:55;;;;;;;0.00;0.00;;;24.80;47.70;;;;;;5093437;28;20195;-45
2023/11/22 10:42:27;;;;;;;0.00;0.00;;;24.70;47.70;;;;;;5093348;28;20194;-41
2023/11/22 10:45:02;;;;;;;0.00;0.00;;;24.70;47.70;;;;;;5085461;28;20195;-48
2023/11/22 10:47:34;;;;;;;0.00;0.00;;;24.70;47.70;;;;;;5072516;28;20658;-50
2023/11/22 10:50:07;;;;;;;0.00;0.00;;;24.70;47.70;;;;;;5073194;28;20195;-50
2023/11/22 10:52:38;;;;;;;0.00;0.00;;;24.70;47.70;;;;;;5078742;28;20256;-49
2023/11/22 10:55:13;;;;;;;0.05;0.05;;;24.70;47.80;;;;;;5075644;28;20198;-48
2023/11/22 10:57:49;;;;;;;0.10;0.10;;;24.60;47.80;;;;;;5090100;28;20259;-49
2023/11/22 11:00:24;;;;;;;0.00;0.00;;;24.60;47.80;;;;;;5092863;28;20268;-47
2023/11/22 11:03:02;;;;;;;0.00;0.00;;;24.60;47.80;;;;;;5092110;28;20283;-48
2023/11/22 11:05:35;;;;;;;0.00;0.00;;;24.50;47.80;;;;;;5079846;28;20675;-49
2023/11/22 11:08:14;;;;;;;0.00;0.00;;;24.60;47.80;;;;;;5082203;28;20213;-51
2023/11/22 11:10:45;;;;;;;0.00;0.00;;;24.50;47.80;;;;;;5081845;28;20554;-50
2023/11/22 11:13:16;;;;;;;0.00;0.00;;;24.50;47.90;;;;;;5083223;28;20273;-51
2023/11/22 11:15:49;;;;;;;0.00;0.00;;;24.50;47.90;;;;;;5082067;28;20197;-56
2023/11/22 11:18:21;;;;;;;0.10;0.10;;;24.50;47.90;;;;;;5082325;28;20211;-51
2023/11/22 11:20:53;;;;;;;0.00;0.00;;;24.50;47.90;;;;;;5084010;28;20274;-53
2023/11/22 11:23:24;;;;;;;0.00;0.00;;;24.50;47.90;;;;;;5082285;28;20711;-53
2023/11/22 11:25:58;;;;;;;0.10;0.10;;;24.40;47.80;;;;;;5081397;28;20677;-50
2023/11/22 11:28:44;;;;;;;0.00;0.00;;;24.40;47.90;;;;;;5081362;28;20369;-48
2023/11/22 11:31:16;;;;;;;0.00;0.00;;;24.40;47.90;;;;;;5083252;28;20186;-50
2023/11/22 11:34:00;;;;;;;0.00;0.00;;;24.40;47.90;;;;;;5083884;28;20202;-46
2023/11/22 11:36:31;;;;;;;0.00;0.00;;;24.40;47.90;;;;;;5083695;28;20205;-51
2023/11/22 11:39:03;;;;;;;0.00;0.00;;;24.40;47.90;;;;;;5075520;28;20239;-56
2023/11/22 11:41:37;;;;;;;0.00;0.00;;;24.30;47.80;;;;;;5081910;28;20202;-49
2023/11/22 11:44:10;;;;;;;0.00;0.00;;;24.30;47.90;;;;;;5092720;28;20649;-48
2023/11/22 11:46:43;;;;;;;0.00;0.00;;;24.30;47.90;;;;;;5092557;28;20645;-55
2023/11/22 11:49:16;;;;;;;0.03;0.03;;;24.30;48.00;;;;;;5092060;28;20628;-56
2023/11/22 11:51:46;;;;;;;0.00;0.00;;;24.20;47.90;;;;;;5092326;28;20198;-52
2023/11/22 11:54:19;;;;;;;0.00;0.00;;;24.20;47.90;;;;;;5092280;28;20206;-57
2023/11/22 11:56:54;;;;;;;0.00;0.00;;;24.20;48.00;;;;;;5092409;28;20544;-50
2023/11/22 11:59:25;;;;;;;0.00;0.00;;;24.20;48.00;;;;;;5092496;28;20220;-50
2023/11/22 12:01:59;;;;;;;0.00;0.00;;;24.20;48.00;;;;;;5092633;28;20198;-55
2023/11/22 12:04:29;;;;;;;0.00;0.00;;;24.20;48.00;;;;;;5092087;28;20198;-54
2023/11/22 12:07:00;;;;;;;0.00;0.00;;;24.20;48.10;;;;;;5092467;28;20197;-48
2023/11/22 12:09:31;;;;;;;0.10;0.10;;;24.20;48.00;;;;;;5092182;28;20230;-50
2023/11/22 12:12:04;;;;;;;0.00;0.00;;;24.20;48.00;;;;;;5092354;28;20206;-47
2023/11/22 12:14:35;;;;;;;0.05;0.05;;;24.20;48.10;;;;;;5092402;28;20225;-50
2023/11/22 12:17:08;;;;;;;0.00;0.00;;;24.10;48.00;;;;;;5091943;28;20198;-55
2023/11/22 12:19:40;;;;;;;0.00;0.00;;;24.10;48.00;;;;;;5073814;28;20317;-55
2023/11/22 12:22:12;;;;;;;0.00;0.00;;;24.10;47.90;;;;;;5071710;28;20198;-55
2023/11/22 12:24:43;;;;;;;0.00;0.00;;;24.10;48.00;;;;;;5071808;28;20890;-55
2023/11/22 12:27:14;;;;;;;0.05;0.05;;;24.10;48.00;;;;;;5071862;28;20605;-54
2023/11/22 12:29:46;;;;;;;0.00;0.00;;;24.10;48.00;;;;;;5071908;28;20218;-49
2023/11/22 12:32:19;;;;;;;0.00;0.00;;;24.00;48.00;;;;;;5071985;28;20199;-56
2023/11/22 12:34:52;;;;;;;0.00;0.00;;;24.00;48.00;;;;;;5071436;28;20241;-56
2023/11/22 12:37:25;;;;;;;0.00;0.00;;;24.00;48.00;;;;;;5071329;28;20206;-43
2023/11/22 12:39:57;;;;;;;0.00;0.00;;;24.00;48.10;;;;;;5071476;28;20205;-56
2023/11/22 12:42:31;;;;;;;0.00;0.00;;;24.00;48.10;;;;;;5088237;28;20198;-56
2023/11/22 12:45:01;;;;;;;0.00;0.00;;;24.00;48.20;;;;;;5092008;28;20431;-56
2023/11/22 12:47:37;;;;;;;0.00;0.00;;;24.00;48.20;;;;;;5091634;28;20576;-53
2023/11/22 12:50:09;;;;;;;0.00;0.00;;;23.90;48.10;;;;;;5091752;28;20221;-51
2023/11/22 12:52:40;;;;;;;0.00;0.00;;;23.90;48.10;;;;;;5089864;28;21784;-44
2023/11/22 12:55:11;;;;;;;0.05;0.05;;;23.90;48.10;;;;;;5072469;28;20286;-54
2023/11/22 12:57:44;;;;;;;0.00;0.00;;;23.90;48.20;;;;;;5072896;28;20215;-55
2023/11/22 13:00:16;;;;;;;0.00;0.00;;;23.90;48.10;;;;;;5071505;28;20203;-53
2023/11/22 13:02:48;;;;;;;0.00;0.00;;;23.90;48.20;;;;;;5070981;28;20248;-50
2023/11/22 13:05:19;;;;;;;0.00;0.00;;;23.80;48.10;;;;;;5082265;28;20198;-43
2023/11/22 13:07:49;;;;;;;0.00;0.00;;;23.80;48.10;;;;;;5080696;28;20264;-44
2023/11/22 13:10:24;;;;;;;0.10;0.10;;;23.80;48.10;;;;;;5070801;28;20226;-56